Time;durP1;ratioP1;P1;durP2;ratioP2;P2;SDS_P1;SDS_P2;PMS_P1;PMS_P2;Temp;Humidity;BMP_temperature;BMP_pressure;BME280_temperature;BME280_humidity;BME280_pressure;Samples;Min_cycle;Max_cycle;Signal;HPM_P1;HPM_P2
2022/06/08 00:00:01;;;;;;;1.70;1.10;;;;;;;13.56;84.68;100366.15;107592;1281;62227;-85
2022/06/08 00:02:32;;;;;;;1.70;1.30;;;;;;;13.51;84.85;100369.05;107678;1279;60447;-84
2022/06/08 00:04:59;;;;;;;2.00;1.20;;;;;;;13.46;85.03;100362.23;107572;1279;75212;-84
2022/06/08 00:07:29;;;;;;;1.70;1.20;;;;;;;13.41;85.18;100353.37;107755;1279;72783;-92
2022/06/08 00:09:58;;;;;;;3.10;1.70;;;;;;;13.35;85.43;100347.58;107430;1279;73708;-84
2022/06/08 00:12:34;;;;;;;3.20;1.50;;;;;;;13.32;85.72;100349.41;107632;1279;62312;-84
2022/06/08 00:15:03;;;;;;;1.90;1.10;;;;;;;13.28;85.80;100360.77;107870;1279;61089;-86
2022/06/08 00:17:30;;;;;;;2.30;1.60;;;;;;;13.23;86.21;100358.46;107437;1281;74584;-86
2022/06/08 00:19:58;;;;;;;3.20;1.90;;;;;;;13.20;86.41;100357.48;107686;1278;71413;-85
2022/06/08 00:22:25;;;;;;;2.70;1.30;;;;;;;13.17;87.04;100359.14;107524;1279;73119;-84
2022/06/08 00:24:55;;;;;;;3.00;1.20;;;;;;;13.14;86.86;100358.15;107521;1279;61901;-85
2022/06/08 00:27:22;;;;;;;3.10;1.30;;;;;;;13.11;87.32;100365.48;107714;1279;60549;-86
2022/06/08 00:29:50;;;;;;;1.80;1.30;;;;;;;13.07;87.35;100363.28;107515;1279;74140;-86
2022/06/08 00:32:18;;;;;;;2.00;1.40;;;;;;;13.04;87.33;100360.98;107677;1279;71380;-86
2022/06/08 00:35:01;;;;;;;2.60;1.30;;;;;;;13.02;87.38;100355.35;107517;1282;71409;-85
2022/06/08 00:37:38;;;;;;;3.20;1.60;;;;;;;12.99;87.80;100353.59;107542;1279;62214;-85
2022/06/08 00:40:25;;;;;;;2.40;1.60;;;;;;;12.99;88.17;100352.77;107736;1279;60638;-85
2022/06/08 00:42:55;;;;;;;3.70;1.40;;;;;;;12.97;88.14;100348.74;107434;1279;74490;-85
2022/06/08 00:45:23;;;;;;;2.90;1.70;;;;;;;12.96;88.39;100348.14;107379;1279;73409;-85
2022/06/08 00:48:00;;;;;;;2.70;1.70;;;;;;;12.94;88.13;100342.03;107831;1279;71667;-86
2022/06/08 00:50:38;;;;;;;1.70;1.30;;;;;;;12.92;88.11;100338.58;107858;1279;63097;-86
2022/06/08 00:53:14;;;;;;;2.90;1.70;;;;;;;12.91;88.41;100337.01;107590;1279;61623;-88
2022/06/08 00:55:46;;;;;;;2.10;1.30;;;;;;;12.89;88.51;100335.64;107827;1279;74665;-86
2022/06/08 00:58:18;;;;;;;4.70;1.70;;;;;;;12.85;88.21;100330.92;107659;1279;72102;-85
2022/06/08 01:00:46;;;;;;;4.40;1.80;;;;;;;12.84;88.42;100328.98;107855;1279;74219;-85
2022/06/08 01:03:18;;;;;;;2.70;1.50;;;;;;;12.82;88.63;100330.64;107721;1279;62429;-85
2022/06/08 01:05:58;;;;;;;2.30;1.80;;;;;;;12.80;88.68;100329.34;107345;1279;60584;-85
2022/06/08 01:08:33;;;;;;;2.80;1.70;;;;;;;12.77;88.71;100330.56;107518;1279;74055;-85
2022/06/08 01:11:04;;;;;;;;;;;;;;;12.75;88.73;100330.47;107545;1279;71603;-85
2022/06/08 01:13:37;;;;;;;3.10;1.70;;;;;;;12.73;88.87;100332.14;107882;1279;72977;-88
2022/06/08 01:16:10;;;;;;;2.60;1.90;;;;;;;12.71;89.08;100330.77;107805;1279;63085;-87
2022/06/08 01:18:45;;;;;;;2.20;1.50;;;;;;;12.72;89.76;100326.86;107363;1279;62647;-86
2022/06/08 01:21:21;;;;;;;2.10;1.70;;;;;;;12.72;89.80;100335.04;107633;1279;74097;-86
2022/06/08 01:24:02;;;;;;;2.40;1.40;;;;;;;12.72;89.96;100326.41;107605;1279;71550;-86
2022/06/08 01:26:40;;;;;;;6.40;2.90;;;;;;;12.75;89.92;100321.12;107692;1279;74075;-86
2022/06/08 01:29:52;;;;;;;5.80;3.30;;;;;;;12.77;89.88;100318.45;107725;1279;61334;-85
2022/06/08 01:32:28;;;;;;;4.10;2.10;;;;;;;12.81;89.68;100313.01;107728;1279;60597;-85
2022/06/08 01:35:21;;;;;;;4.20;1.80;;;;;;;12.84;89.35;100311.75;107742;1279;74148;-85
2022/06/08 01:38:06;;;;;;;3.00;1.90;;;;;;;12.86;89.46;100309.71;107704;1279;72540;-85
2022/06/08 01:40:33;;;;;;;3.20;1.70;;;;;;;12.89;89.18;100308.66;107833;1279;74082;-85
2022/06/08 01:43:21;;;;;;;2.70;1.80;;;;;;;12.92;89.13;100305.23;107648;1279;62684;-84
2022/06/08 01:46:22;;;;;;;3.00;2.10;;;;;;;12.95;88.95;100302.34;107846;1279;60325;-85
2022/06/08 01:49:18;;;;;;;1.80;1.20;;;;;;;12.98;89.06;100294.43;107841;1279;74421;-84
2022/06/08 01:52:10;;;;;;;2.50;1.80;;;;;;;13.01;88.69;100287.36;107605;1279;74095;-85
2022/06/08 01:54:44;;;;;;;2.50;2.00;;;;;;;13.02;88.85;100286.09;107711;1279;73257;-84
2022/06/08 01:57:17;;;;;;;2.60;1.90;;;;;;;13.02;88.62;100281.38;107741;1279;63333;-85
2022/06/08 01:59:53;;;;;;;3.90;2.20;;;;;;;13.01;88.79;100278.91;107810;1278;61736;-85
2022/06/08 02:02:30;;;;;;;3.80;2.10;;;;;;;13.01;89.13;100278.48;107707;1279;77125;-85
2022/06/08 02:04:57;;;;;;;3.20;1.80;;;;;;;13.01;89.18;100274.20;107850;1279;71547;-84
2022/06/08 02:07:57;;;;;;;3.60;2.30;;;;;;;13.01;89.12;100271.38;107883;1279;72943;-85
2022/06/08 02:10:31;;;;;;;3.00;1.70;;;;;;;13.00;89.48;100270.19;107999;1279;62395;-84
2022/06/08 02:13:04;;;;;;;;;;;;;;;13.01;89.42;100277.27;107717;1279;60416;-85
2022/06/08 02:15:40;;;;;;;2.70;1.80;;;;;;;12.98;89.77;100279.03;107877;1279;73124;-86
2022/06/08 02:18:14;;;;;;;1.90;1.50;;;;;;;12.93;89.77;100279.85;107844;1279;72770;-85
2022/06/08 02:21:06;;;;;;;2.00;1.60;;;;;;;12.89;90.10;100274.77;107637;1279;73080;-84
2022/06/08 02:23:41;;;;;;;2.10;1.80;;;;;;;12.84;90.14;100274.24;107802;1279;62307;-84
2022/06/08 02:26:13;;;;;;;2.50;1.50;;;;;;;12.82;90.52;100266.75;107851;1279;60843;-84
2022/06/08 02:29:08;;;;;;;3.70;2.20;;;;;;;12.81;90.79;100266.70;107785;1278;74400;-84
2022/06/08 02:31:43;;;;;;;2.40;1.60;;;;;;;12.80;91.10;100265.43;107516;1279;70571;-84
2022/06/08 02:34:28;;;;;;;2.20;1.70;;;;;;;12.78;91.39;100265.09;107813;1279;72917;-84
2022/06/08 02:37:22;;;;;;;4.10;2.10;;;;;;;12.77;91.50;100265.05;107667;1279;62268;-85
2022/06/08 02:39:56;;;;;;;2.90;2.20;;;;;;;12.76;91.83;100258.86;107543;1279;60585;-84
2022/06/08 02:42:33;;;;;;;2.50;2.00;;;;;;;12.76;92.26;100263.81;107456;1279;74124;-84
2022/06/08 02:45:06;;;;;;;3.80;2.00;;;;;;;12.76;92.49;100258.16;107466;1279;73783;-85
2022/06/08 02:47:36;;;;;;;2.60;1.90;;;;;;;12.77;92.63;100261.13;107829;1279;74107;-84
2022/06/08 02:50:08;;;;;;;2.80;2.00;;;;;;;12.79;92.79;100259.48;107539;1279;62192;-85
2022/06/08 02:53:09;;;;;;;3.00;2.20;;;;;;;12.79;92.95;100258.25;107826;1278;60842;-84
2022/06/08 02:55:50;;;;;;;2.40;2.00;;;;;;;12.82;92.98;100255.94;107191;1281;74437;-85
2022/06/08 02:58:34;;;;;;;2.70;2.00;;;;;;;12.83;93.18;100248.84;107710;1279;71521;-84
2022/06/08 03:01:11;;;;;;;2.90;2.00;;;;;;;12.85;93.02;100253.52;107762;1279;72726;-84
2022/06/08 03:04:17;;;;;;;3.20;1.90;;;;;;;12.88;93.14;100253.36;108004;1279;61803;-85
2022/06/08 03:06:56;;;;;;;5.70;2.30;;;;;;;12.90;93.26;100259.15;107979;1279;61321;-85
2022/06/08 03:09:25;;;;;;;6.70;2.10;;;;;;;12.92;93.16;100259.96;107864;1282;74257;-85
2022/06/08 03:12:00;;;;;;;3.00;2.10;;;;;;;12.94;93.32;100260.92;108114;1279;71349;-85
2022/06/08 03:14:30;;;;;;;4.00;2.00;;;;;;;12.97;93.34;100259.98;107913;1280;73435;-84
2022/06/08 03:17:00;;;;;;;3.90;2.30;;;;;;;13.00;93.42;100263.52;107350;1279;63531;-85
2022/06/08 03:19:29;;;;;;;4.00;2.10;;;;;;;13.04;93.45;100264.05;107622;1279;60646;-84
2022/06/08 03:21:57;;;;;;;3.40;2.10;;;;;;;13.08;93.31;100264.76;107623;1279;75662;-84
2022/06/08 03:24:26;;;;;;;3.30;1.90;;;;;;;13.13;93.20;100262.60;107276;1279;71956;-83
2022/06/08 03:26:57;;;;;;;4.50;2.40;;;;;;;13.16;93.14;100264.24;107736;1279;71931;-84
2022/06/08 03:29:27;;;;;;;3.60;2.00;;;;;;;13.19;93.05;100267.61;107620;1281;61489;-84
2022/06/08 03:31:55;;;;;;;3.70;1.90;;;;;;;13.21;93.01;100269.42;107675;1279;61468;-84
2022/06/08 03:34:22;;;;;;;4.00;2.40;;;;;;;13.24;92.96;100268.73;107791;1279;74714;-84
2022/06/08 03:36:49;;;;;;;3.10;2.30;;;;;;;13.26;92.94;100272.83;107486;1279;71614;-84
2022/06/08 03:39:16;;;;;;;3.60;2.00;;;;;;;13.30;92.93;100273.42;107822;1279;73009;-84
2022/06/08 03:41:44;;;;;;;4.40;2.40;;;;;;;13.35;92.98;100273.02;107475;1279;62272;-84
2022/06/08 03:44:11;;;;;;;3.70;2.20;;;;;;;13.39;93.10;100275.82;107430;1282;60568;-84
2022/06/08 03:46:43;;;;;;;3.50;2.70;;;;;;;13.43;93.12;100271.39;107488;1280;73529;-84
2022/06/08 03:49:11;;;;;;;4.00;2.30;;;;;;;13.49;93.22;100271.89;107620;1279;70910;-85
2022/06/08 03:51:40;;;;;;;3.40;2.20;;;;;;;13.54;93.09;100275.96;107574;1279;74751;-84
2022/06/08 03:54:12;;;;;;;2.80;2.30;;;;;;;13.59;93.11;100276.85;107925;1279;64079;-85
2022/06/08 03:56:41;;;;;;;3.90;2.10;;;;;;;13.65;93.23;100274.71;107680;1279;62329;-85
2022/06/08 03:59:08;;;;;;;3.20;2.30;;;;;;;13.69;92.96;100276.24;107598;1279;74764;-87
2022/06/08 04:01:36;;;;;;;2.60;2.00;;;;;;;13.75;93.21;100274.05;107432;1279;72386;-84
2022/06/08 04:04:03;;;;;;;2.70;1.90;;;;;;;13.80;93.05;100271.80;107769;1281;74724;-86
2022/06/08 04:06:30;;;;;;;3.40;2.40;;;;;;;13.86;93.06;100270.23;107532;1279;63589;-84
2022/06/08 04:08:57;;;;;;;3.80;2.50;;;;;;;13.92;92.93;100269.13;107735;1279;59778;-86
2022/06/08 04:11:24;;;;;;;3.70;2.20;;;;;;;13.98;92.69;100271.33;107598;1281;75645;-84
2022/06/08 04:13:51;;;;;;;3.70;2.50;;;;;;;14.03;92.67;100272.26;107754;1279;72520;-85
2022/06/08 04:16:21;;;;;;;3.00;2.50;;;;;;;14.09;92.63;100278.00;107630;1281;73350;-85
2022/06/08 04:18:49;;;;;;;2.50;2.20;;;;;;;14.15;92.49;100277.58;107326;1280;64208;-86
2022/06/08 04:21:16;;;;;;;3.60;2.20;;;;;;;14.21;92.52;100274.40;107594;1279;59255;-87
2022/06/08 04:23:45;;;;;;;3.60;2.20;;;;;;;14.30;92.09;100276.06;107575;1279;74124;-86
2022/06/08 04:26:15;;;;;;;3.10;2.40;;;;;;;14.38;91.88;100275.11;107816;1279;71489;-85
2022/06/08 04:28:45;;;;;;;3.30;2.70;;;;;;;14.48;91.91;100271.81;107632;1279;74188;-84
2022/06/08 04:31:14;;;;;;;3.50;2.30;;;;;;;14.59;91.51;100266.91;107877;1280;63827;-83
2022/06/08 04:33:42;;;;;;;5.00;2.60;;;;;;;14.69;91.47;100269.67;107462;1281;62116;-83
2022/06/08 04:36:19;;;;;;;3.00;2.30;;;;;;;14.79;91.27;100267.20;107503;1279;75471;-83
2022/06/08 04:38:51;;;;;;;3.80;2.40;;;;;;;14.87;90.90;100266.55;107878;1279;72450;-84
2022/06/08 04:41:24;;;;;;;3.80;2.50;;;;;;;14.93;90.76;100263.46;108106;1279;71444;-86
2022/06/08 04:43:51;;;;;;;5.80;3.00;;;;;;;15.01;90.89;100267.24;107770;1280;62420;-81
2022/06/08 04:46:20;;;;;;;5.10;2.90;;;;;;;15.06;91.12;100266.27;107436;1281;60341;-81
2022/06/08 04:48:47;;;;;;;4.10;3.30;;;;;;;15.16;91.75;100273.85;107453;1279;75540;-80
2022/06/08 04:51:15;;;;;;;3.90;3.10;;;;;;;15.25;91.68;100277.90;107685;1277;70072;-80
2022/06/08 04:53:43;;;;;;;3.70;2.80;;;;;;;15.33;91.57;100276.29;107714;1279;73508;-80
2022/06/08 04:56:11;;;;;;;4.10;3.20;;;;;;;15.39;91.40;100273.29;107684;1279;63479;-80
2022/06/08 04:58:43;;;;;;;4.10;2.90;;;;;;;15.45;91.40;100270.08;107346;1279;61675;-81
2022/06/08 05:01:10;;;;;;;5.60;2.90;;;;;;;15.52;91.24;100265.75;107945;1279;74589;-81
2022/06/08 05:03:37;;;;;;;4.30;3.60;;;;;;;15.58;91.07;100261.13;107757;1279;71244;-80
2022/06/08 05:06:04;;;;;;;5.10;4.00;;;;;;;15.61;90.89;100259.29;107505;1279;73799;-80
2022/06/08 05:08:34;;;;;;;5.30;4.50;;;;;;;15.64;90.86;100255.70;107907;1279;62215;-81
2022/06/08 05:11:05;;;;;;;5.60;3.80;;;;;;;15.69;90.84;100252.23;107870;1279;61389;-81
2022/06/08 05:13:33;;;;;;;7.10;5.80;;;;;;;15.77;90.77;100253.23;107728;1279;74079;-80
2022/06/08 05:16:01;;;;;;;7.90;6.00;;;;;;;15.89;90.63;100243.73;107669;1279;70628;-81
2022/06/08 05:18:31;;;;;;;7.20;5.90;;;;;;;16.06;90.45;100247.92;107582;1279;72861;-82
2022/06/08 05:20:58;;;;;;;8.70;6.40;;;;;;;16.23;89.94;100246.88;107921;1279;63464;-82
2022/06/08 05:23:30;;;;;;;9.60;7.60;;;;;;;16.35;89.03;100248.62;107367;1279;61786;-81
2022/06/08 05:25:58;;;;;;;11.90;9.00;;;;;;;16.45;88.23;100242.05;107917;1279;74194;-81
2022/06/08 05:28:25;;;;;;;9.40;8.30;;;;;;;16.53;87.50;100241.95;107613;1279;71777;-81
2022/06/08 05:30:54;;;;;;;12.10;8.40;;;;;;;16.60;87.08;100241.02;107646;1279;72169;-81
2022/06/08 05:33:21;;;;;;;10.30;7.20;;;;;;;16.64;86.40;100246.11;107481;1281;63998;-81
2022/06/08 05:35:48;;;;;;;8.70;7.40;;;;;;;16.65;86.08;100249.03;107408;1279;60720;-82
2022/06/08 05:38:15;;;;;;;9.30;7.90;;;;;;;16.66;86.13;100250.72;107630;1279;74211;-82
2022/06/08 05:40:51;;;;;;;8.80;7.60;;;;;;;16.67;86.07;100244.10;107334;1279;70053;-81
2022/06/08 05:43:18;;;;;;;7.10;6.20;;;;;;;16.73;86.04;100248.64;107586;1279;73144;-81
2022/06/08 05:45:46;;;;;;;9.20;7.40;;;;;;;16.79;85.83;100247.91;107641;1281;62329;-81
2022/06/08 05:48:14;;;;;;;8.30;7.40;;;;;;;16.83;85.07;100251.09;107515;1280;61592;-82
2022/06/08 05:50:43;;;;;;;10.10;7.10;;;;;;;16.89;85.17;100249.00;107467;1279;75310;-80
2022/06/08 05:53:12;;;;;;;8.60;6.60;;;;;;;16.91;84.81;100254.77;107692;1279;71963;-83
2022/06/08 05:55:40;;;;;;;10.00;6.80;;;;;;;16.90;84.64;100258.20;107506;1279;71751;-80
2022/06/08 05:58:07;;;;;;;6.70;6.00;;;;;;;16.88;84.45;100257.55;107647;1279;61755;-80
2022/06/08 06:00:38;;;;;;;10.90;6.10;;;;;;;16.86;84.72;100256.00;107449;1279;60388;-81
2022/06/08 06:03:07;;;;;;;8.90;6.30;;;;;;;16.86;85.15;100260.66;107413;1279;74190;-81
2022/06/08 06:05:37;;;;;;;7.00;5.70;;;;;;;16.85;85.06;100256.18;107533;1279;71921;-80
2022/06/08 06:08:05;;;;;;;7.10;4.50;;;;;;;16.88;85.24;100255.89;107358;1279;74368;-81
2022/06/08 06:10:34;;;;;;;8.80;5.40;;;;;;;16.94;85.29;100258.11;107376;1279;63719;-82
2022/06/08 06:13:00;;;;;;;5.50;5.00;;;;;;;16.98;84.84;100257.45;107422;1279;62527;-80
2022/06/08 06:15:27;;;;;;;6.40;5.50;;;;;;;17.02;84.51;100260.27;106779;1281;74166;-80
2022/06/08 06:17:57;;;;;;;6.00;4.60;;;;;;;17.11;84.53;100257.17;107037;1279;71642;-80
2022/06/08 06:20:24;;;;;;;7.10;4.10;;;;;;;17.21;84.25;100261.31;107222;1279;73263;-82
2022/06/08 06:22:51;;;;;;;5.00;3.60;;;;;;;17.26;83.45;100265.45;107699;1279;61589;-82
2022/06/08 06:25:18;;;;;;;4.50;3.20;;;;;;;17.31;83.09;100261.34;107667;1279;59107;-82
2022/06/08 06:27:45;;;;;;;4.40;2.70;;;;;;;17.37;82.89;100261.36;106943;1281;73994;-81
2022/06/08 06:30:16;;;;;;;4.30;3.00;;;;;;;17.41;82.22;100260.55;107282;1279;71383;-82
2022/06/08 06:32:45;;;;;;;7.00;3.50;;;;;;;17.48;81.96;100262.14;107379;1279;74270;-82
2022/06/08 06:35:31;;;;;;;3.40;2.80;;;;;;;17.57;81.57;100261.75;107378;1279;62173;-80
2022/06/08 06:38:04;;;;;;;3.80;2.40;;;;;;;17.70;81.10;100265.53;107527;1281;61680;-82
2022/06/08 06:40:30;;;;;;;5.20;2.90;;;;;;;17.82;80.68;100262.98;107430;1279;75671;-81
2022/06/08 06:42:58;;;;;;;4.20;2.90;;;;;;;17.97;80.59;100262.43;107310;1280;72430;-80
2022/06/08 06:45:24;;;;;;;2.60;2.10;;;;;;;18.08;79.84;100260.05;107213;1281;73121;-82
2022/06/08 06:47:51;;;;;;;3.50;3.20;;;;;;;18.18;79.17;100257.70;107581;1279;62237;-79
2022/06/08 06:50:19;;;;;;;3.90;3.10;;;;;;;18.21;78.49;100259.69;107141;1281;60596;-80
2022/06/08 06:52:46;;;;;;;4.40;3.00;;;;;;;18.26;78.65;100261.77;107272;1280;75283;-79
2022/06/08 06:55:26;;;;;;;4.70;3.00;;;;;;;18.30;78.40;100260.41;107494;1279;71704;-80
2022/06/08 06:57:57;;;;;;;3.80;2.60;;;;;;;18.44;78.14;100266.38;107908;1279;71992;-79
2022/06/08 07:00:24;;;;;;;5.50;2.80;;;;;;;18.60;77.71;100265.69;107789;1279;63139;-80
2022/06/08 07:02:51;;;;;;;4.80;3.90;;;;;;;18.79;77.35;100265.80;107267;1281;60262;-79
2022/06/08 07:05:23;;;;;;;4.30;2.90;;;;;;;18.91;76.58;100259.96;107158;1280;74153;-79
2022/06/08 07:07:50;;;;;;;5.60;2.50;;;;;;;18.98;75.66;100255.03;107506;1279;70491;-79
2022/06/08 07:10:17;;;;;;;3.40;2.90;;;;;;;18.98;75.19;100257.50;107256;1280;73207;-81
2022/06/08 07:12:44;;;;;;;4.60;3.70;;;;;;;19.04;75.77;100255.99;107483;1280;63342;-80
2022/06/08 07:15:17;;;;;;;5.50;3.50;;;;;;;19.03;74.66;100259.70;107605;1280;60483;-82
2022/06/08 07:17:44;;;;;;;5.50;4.40;;;;;;;18.93;73.93;100256.78;107510;1279;74131;-81
2022/06/08 07:20:15;;;;;;;3.60;3.00;;;;;;;18.90;74.22;100251.88;107592;1279;71363;-81
2022/06/08 07:22:42;;;;;;;6.00;4.40;;;;;;;18.90;73.40;100245.06;107600;1278;74287;-80
2022/06/08 07:25:09;;;;;;;8.20;5.10;;;;;;;18.93;72.81;100237.42;107244;1279;62217;-81
2022/06/08 07:27:37;;;;;;;8.40;5.20;;;;;;;18.97;71.89;100234.91;107631;1279;61719;-80
2022/06/08 07:30:04;;;;;;;7.50;6.20;;;;;;;18.99;71.04;100232.20;107102;1281;74725;-80
2022/06/08 07:32:31;;;;;;;5.80;4.40;;;;;;;19.05;70.20;100225.87;107507;1280;70627;-80
2022/06/08 07:34:59;;;;;;;5.10;3.50;;;;;;;19.15;69.95;100218.34;107526;1279;72845;-80
2022/06/08 07:37:27;;;;;;;4.70;3.40;;;;;;;19.31;69.32;100208.70;107423;1281;62667;-81
2022/06/08 07:39:54;;;;;;;4.50;3.60;;;;;;;19.45;69.57;100214.63;107514;1281;62066;-79
2022/06/08 07:42:23;;;;;;;4.80;3.70;;;;;;;19.60;68.49;100210.66;107698;1281;74118;-81
2022/06/08 07:44:50;;;;;;;3.30;2.60;;;;;;;19.78;68.14;100217.08;107695;1279;71357;-80
2022/06/08 07:47:17;;;;;;;4.50;2.60;;;;;;;19.80;67.20;100218.04;107289;1279;74042;-80
2022/06/08 07:49:49;;;;;;;4.80;3.10;;;;;;;19.72;67.71;100212.91;107466;1281;62347;-80
2022/06/08 07:52:21;;;;;;;3.40;2.70;;;;;;;19.76;67.30;100210.43;107823;1279;61457;-79
2022/06/08 07:54:49;;;;;;;3.30;2.60;;;;;;;19.93;66.41;100208.63;107235;1281;74391;-80
2022/06/08 07:57:25;;;;;;;4.90;2.70;;;;;;;19.99;64.35;100203.33;107521;1281;71535;-80
2022/06/08 07:59:53;;;;;;;3.80;2.70;;;;;;;20.04;64.87;100204.79;107433;1280;72868;-81
2022/06/08 08:02:20;;;;;;;5.00;2.80;;;;;;;20.06;64.40;100197.32;107218;1281;62547;-80
2022/06/08 08:04:47;;;;;;;2.80;2.30;;;;;;;20.13;64.68;100191.55;107395;1281;62006;-81
2022/06/08 08:07:14;;;;;;;3.90;2.50;;;;;;;20.26;64.07;100182.96;107793;1279;75498;-81
2022/06/08 08:09:41;;;;;;;4.10;3.30;;;;;;;20.33;62.90;100179.81;107695;1281;72820;-81
2022/06/08 08:12:11;;;;;;;3.80;3.00;;;;;;;20.41;62.38;100177.70;107322;1281;74689;-80
2022/06/08 08:14:38;;;;;;;4.40;3.30;;;;;;;20.51;62.83;100173.00;107708;1281;61142;-80
2022/06/08 08:17:05;;;;;;;3.20;2.60;;;;;;;20.65;62.68;100169.40;106991;1284;60484;-80
2022/06/08 08:19:32;;;;;;;3.10;2.40;;;;;;;20.79;61.72;100168.47;107350;1281;74174;-80
2022/06/08 08:22:00;;;;;;;3.10;2.10;;;;;;;20.92;61.09;100166.31;107180;1281;71031;-83
2022/06/08 08:24:27;;;;;;;4.60;2.30;;;;;;;21.01;59.85;100167.74;107222;1280;74123;-82
2022/06/08 08:26:55;;;;;;;3.10;2.00;;;;;;;21.01;59.23;100170.97;107611;1279;60355;-82
2022/06/08 08:29:22;;;;;;;4.30;1.70;;;;;;;20.93;58.06;100171.12;107384;1281;61043;-80
2022/06/08 08:31:49;;;;;;;2.10;1.80;;;;;;;20.85;57.38;100181.02;107384;1281;74934;-81
2022/06/08 08:34:17;;;;;;;2.30;1.40;;;;;;;20.68;57.27;100171.42;107491;1281;68911;-80
2022/06/08 08:36:45;;;;;;;2.30;1.40;;;;;;;20.53;58.25;100169.80;107317;1281;72910;-82
2022/06/08 08:39:12;;;;;;;4.00;1.90;;;;;;;20.45;58.38;100163.40;107100;1281;60776;-84
2022/06/08 08:44:34;;;;;;;3.00;2.00;;;;;;;20.42;58.76;100162.95;107376;1281;73210;-79
2022/06/08 08:47:35;;;;;;;3.20;2.10;;;;;;;20.43;58.95;100163.65;106685;1281;836442;-83
2022/06/08 08:50:39;;;;;;;2.60;2.10;;;;;;;20.60;58.71;100155.88;107629;1280;73113;-80
2022/06/08 08:53:30;;;;;;;7.40;2.40;;;;;;;20.75;57.89;100151.45;107474;1279;61779;-80
2022/06/08 08:56:28;;;;;;;3.90;2.30;;;;;;;20.91;57.67;100148.67;107480;1281;60651;-81
2022/06/08 08:58:56;;;;;;;3.30;2.10;;;;;;;21.14;57.75;100146.81;107626;1280;75147;-81
2022/06/08 09:01:33;;;;;;;2.40;1.90;;;;;;;21.22;56.96;100142.00;107123;1281;71334;-81
2022/06/08 09:04:14;;;;;;;2.50;1.90;;;;;;;21.34;56.29;100139.16;107514;1281;75139;-80
2022/06/08 09:06:42;;;;;;;2.50;1.80;;;;;;;21.48;55.66;100136.27;107709;1280;59836;-81
2022/06/08 09:09:31;;;;;;;3.00;1.80;;;;;;;21.58;55.62;100134.59;107842;1280;60980;-81
2022/06/08 09:11:58;;;;;;;1.90;1.40;;;;;;;21.77;55.44;100130.91;108132;1279;74189;-81
2022/06/08 09:15:00;;;;;;;2.90;1.80;;;;;;;21.89;54.39;100125.89;107923;1279;71566;-80
2022/06/08 09:17:49;;;;;;;2.20;1.50;;;;;;;21.98;53.63;100126.68;108090;1280;72111;-80
2022/06/08 09:20:15;;;;;;;3.40;2.10;;;;;;;21.97;53.06;100125.70;107846;1281;60465;-80
2022/06/08 09:22:48;;;;;;;2.20;1.50;;;;;;;21.96;53.70;100123.16;107738;1279;61781;-82
2022/06/08 09:25:31;;;;;;;1.80;1.40;;;;;;;21.96;53.76;100128.08;107685;1279;74503;-81
2022/06/08 09:27:59;;;;;;;1.80;1.30;;;;;;;21.89;52.59;100122.16;107274;1281;71490;-84
2022/06/08 09:30:46;;;;;;;5.80;4.20;;;;;;;21.89;52.57;100118.44;107248;1281;73084;-81
2022/06/08 09:33:17;;;;;;;5.20;3.80;;;;;;;22.02;52.28;100117.40;107505;1279;60458;-80
2022/06/08 09:35:57;;;;;;;2.20;1.40;;;;;;;22.19;52.33;100112.49;107655;1279;60481;-80
2022/06/08 09:38:27;;;;;;;4.30;1.20;;;;;;;22.42;52.27;100110.23;107146;1277;74230;-81
2022/06/08 09:41:07;;;;;;;2.80;1.70;;;;;;;22.47;51.58;100108.14;107320;1282;72850;-81
2022/06/08 09:43:55;;;;;;;3.40;1.40;;;;;;;22.53;51.72;100105.34;107906;1279;73391;-81
2022/06/08 09:46:23;;;;;;;2.10;1.30;;;;;;;22.57;51.11;100096.10;107662;1279;61696;-83
2022/06/08 09:51:52;;;;;;;2.70;1.50;;;;;;;22.48;51.59;100094.83;107515;1279;74169;-82
2022/06/08 09:54:34;;;;;;;3.70;1.80;;;;;;;22.48;51.80;100098.95;107630;1281;71455;-82
2022/06/08 09:57:25;;;;;;;5.40;1.40;;;;;;;22.57;51.57;100094.80;107859;1279;74110;-81
2022/06/08 10:00:11;;;;;;;2.60;1.20;;;;;;;22.56;49.08;100089.98;107699;1279;60334;-81
2022/06/08 10:02:43;;;;;;;2.80;1.10;;;;;;;22.55;48.59;100089.22;107803;1279;61663;-81
2022/06/08 10:05:29;;;;;;;2.50;1.30;;;;;;;22.67;48.45;100086.96;107842;1279;74198;-80
2022/06/08 10:08:26;;;;;;;1.70;1.20;;;;;;;22.88;48.03;100085.55;107856;1279;71406;-81
2022/06/08 10:14:33;;;;;;;1.60;1.20;;;;;;;23.42;47.38;100089.70;107820;1279;60610;-80
2022/06/08 10:17:10;;;;;;;1.80;1.30;;;;;;;23.63;45.97;100086.52;107700;1281;60995;-81
2022/06/08 10:20:01;;;;;;;1.80;1.20;;;;;;;23.64;46.63;100084.48;108235;1279;72820;-81
2022/06/08 10:22:43;;;;;;;2.70;1.10;;;;;;;23.62;46.75;100083.30;107801;1279;71318;-79
2022/06/08 10:25:15;;;;;;;4.00;1.50;;;;;;;23.65;46.89;100080.58;107643;1279;73787;-83
2022/06/08 10:27:56;;;;;;;1.60;1.10;;;;;;;23.79;46.35;100075.07;107741;1280;62223;-80
2022/06/08 10:30:54;;;;;;;1.60;1.10;;;;;;;23.83;45.85;100075.48;107737;1281;60562;-79
2022/06/08 10:33:26;;;;;;;1.50;0.90;;;;;;;23.84;45.98;100071.09;107442;1281;74279;-80
2022/06/08 10:35:56;;;;;;;2.10;1.00;;;;;;;23.83;45.74;100067.14;107476;1281;71406;-83
2022/06/08 10:38:31;;;;;;;2.50;0.90;;;;;;;23.82;45.29;100070.06;107598;1281;74135;-83
2022/06/08 10:43:58;;;;;;;2.80;2.10;;;;;;;23.59;46.43;100066.79;107604;1279;61767;-83
2022/06/08 10:46:43;;;;;;;1.70;0.90;;;;;;;23.68;46.47;100067.30;107783;1280;74031;-82
2022/06/08 10:49:32;;;;;;;1.30;0.80;;;;;;;23.67;45.61;100064.54;107830;1279;71500;-84
2022/06/08 10:52:20;;;;;;;1.60;1.00;;;;;;;23.77;44.99;100067.11;107365;1281;74202;-82
2022/06/08 10:54:53;;;;;;;2.70;1.10;;;;;;;23.94;43.80;100071.04;107717;1279;59538;-82
2022/06/08 10:57:36;;;;;;;2.10;1.50;;;;;;;23.99;44.10;100063.05;107530;1281;61097;-80
2022/06/08 11:00:22;;;;;;;2.00;0.90;;;;;;;24.27;44.99;100062.45;107797;1281;74164;-79
2022/06/08 11:02:54;;;;;;;1.40;0.90;;;;;;;24.57;43.53;100066.65;107839;1280;72893;-79
2022/06/08 11:05:36;;;;;;;2.00;1.00;;;;;;;24.67;43.30;100063.52;107589;1280;74191;-79
2022/06/08 11:08:10;;;;;;;1.70;1.00;;;;;;;24.86;43.59;100061.25;107706;1279;60349;-81
2022/06/08 11:10:49;;;;;;;2.10;0.90;;;;;;;25.02;42.44;100058.20;107715;1279;61702;-81
2022/06/08 11:13:22;;;;;;;1.70;1.10;;;;;;;25.18;41.34;100064.57;107564;1279;74174;-81
2022/06/08 11:16:17;;;;;;;2.70;1.20;;;;;;;25.05;40.64;100065.23;107428;1280;71799;-81
2022/06/08 11:19:10;;;;;;;3.40;1.80;;;;;;;25.09;41.49;100059.02;107789;1280;73186;-81
2022/06/08 11:22:00;;;;;;;2.20;1.00;;;;;;;24.93;41.39;100062.86;107385;1281;61613;-81
2022/06/08 11:24:38;;;;;;;1.60;1.10;;;;;;;24.71;41.89;100058.92;107681;1279;60381;-81
2022/06/08 11:27:11;;;;;;;1.80;0.70;;;;;;;24.48;42.30;100052.87;107258;1281;75161;-81
2022/06/08 11:29:38;;;;;;;1.20;0.70;;;;;;;24.39;42.05;100047.07;107732;1279;72430;-81
2022/06/08 11:32:19;;;;;;;1.70;1.00;;;;;;;24.51;42.35;100045.79;107575;1279;74383;-81
2022/06/08 11:35:12;;;;;;;1.80;0.80;;;;;;;24.92;42.24;100045.66;107827;1279;60907;-82
2022/06/08 11:37:57;;;;;;;1.40;1.00;;;;;;;25.16;41.68;100046.45;107844;1279;61824;-81
2022/06/08 11:40:29;;;;;;;1.70;1.00;;;;;;;25.42;41.18;100038.95;107758;1279;73026;-81
2022/06/08 11:43:07;;;;;;;1.50;1.00;;;;;;;25.41;39.79;100040.98;107576;1281;71333;-82
2022/06/08 11:45:44;;;;;;;2.70;1.40;;;;;;;25.35;39.51;100040.41;107807;1279;73181;-82
2022/06/08 11:48:17;;;;;;;2.40;1.40;;;;;;;25.39;39.64;100033.02;106941;1281;60402;-82
2022/06/08 11:50:58;;;;;;;2.00;1.30;;;;;;;25.68;39.87;100034.49;107638;1280;60210;-81
2022/06/08 11:53:29;;;;;;;1.50;0.90;;;;;;;25.87;39.73;100029.42;107801;1279;73322;-81
2022/06/08 11:56:19;;;;;;;1.30;0.90;;;;;;;25.81;39.43;100020.36;107837;1280;72286;-81
2022/06/08 11:58:49;;;;;;;1.50;1.20;;;;;;;25.79;38.94;100020.14;107767;1280;74276;-81